Time;durP1;ratioP1;P1;durP2;ratioP2;P2;SDS_P1;SDS_P2;PMS_P1;PMS_P2;Temp;Humidity;BMP_temperature;BMP_pressure;BME280_temperature;BME280_humidity;BME280_pressure;Samples;Min_cycle;Max_cycle;Signal;HPM_P1;HPM_P2
2024/02/15 00:00:01;;;;;;;11.07;6.40;;;;;;;4.57;50.45;95379.53;5088071;28;20406;-76
2024/02/15 00:02:26;;;;;;;7.22;5.95;;;;;;;4.46;50.43;95372.09;5069921;28;20036;-76
2024/02/15 00:04:52;;;;;;;8.70;6.82;;;;;;;4.41;50.71;95375.22;5088052;28;20555;-76
2024/02/15 00:07:22;;;;;;;10.70;6.72;;;;;;;4.41;50.86;95382.59;5088387;28;20028;-76
2024/02/15 00:09:47;;;;;;;6.95;5.80;;;;;;;4.38;51.01;95377.94;5070291;28;20032;-77
2024/02/15 00:12:13;;;;;;;8.75;6.65;;;;;;;4.30;50.98;95379.06;5088628;28;20027;-78
2024/02/15 00:14:38;;;;;;;8.57;5.70;;;;;;;4.26;51.08;95381.81;5088355;28;20024;-75
2024/02/15 00:17:04;;;;;;;7.45;6.45;;;;;;;4.20;51.26;95380.63;5053037;28;20028;-76
2024/02/15 00:19:30;;;;;;;8.95;6.28;;;;;;;4.25;51.07;95381.03;5088104;28;20028;-76
2024/02/15 00:21:56;;;;;;;10.65;6.78;;;;;;;4.26;51.10;95370.91;5087816;28;20119;-77
2024/02/15 00:24:22;;;;;;;9.13;6.10;;;;;;;4.32;50.93;95380.25;5071271;28;20202;-76
2024/02/15 00:26:47;;;;;;;8.98;6.70;;;;;;;4.32;51.04;95391.16;5089319;28;20040;-77
2024/02/15 00:29:13;;;;;;;10.00;6.80;;;;;;;4.41;50.89;95393.50;5070204;28;20043;-78
2024/02/15 00:31:39;;;;;;;7.43;6.10;;;;;;;4.39;50.85;95393.88;5068461;28;20031;-77
2024/02/15 00:34:05;;;;;;;8.93;6.13;;;;;;;4.46;50.57;95395.84;5087923;28;20455;-78
2024/02/15 00:36:32;;;;;;;7.43;6.28;;;;;;;4.41;50.62;95396.22;5087723;28;20047;-78
2024/02/15 00:38:57;;;;;;;10.18;5.97;;;;;;;4.40;50.88;95395.44;5069350;28;20304;-78
2024/02/15 00:41:23;;;;;;;9.23;7.05;;;;;;;4.28;51.13;95397.75;5087673;28;20112;-78
2024/02/15 00:43:48;;;;;;;7.53;6.20;;;;;;;4.28;51.27;95395.03;5087330;28;20478;-78
2024/02/15 00:46:15;;;;;;;9.02;6.22;;;;;;;4.22;51.31;95400.84;5087859;28;20542;-78
2024/02/15 00:48:41;;;;;;;9.95;6.40;;;;;;;4.24;51.13;95384.13;5087380;28;20020;-77
2024/02/15 00:51:07;;;;;;;9.60;6.07;;;;;;;4.37;51.03;95390.00;5087302;28;20103;-78
2024/02/15 00:53:32;;;;;;;9.48;6.32;;;;;;;4.35;50.99;95398.53;5068786;28;20024;-78
2024/02/15 00:55:58;;;;;;;8.43;5.60;;;;;;;4.37;50.92;95385.34;5086926;28;20043;-78
2024/02/15 00:58:24;;;;;;;8.25;6.03;;;;;;;4.40;50.93;95397.38;5068999;28;20059;-77
2024/02/15 01:00:49;;;;;;;9.38;6.60;;;;;;;4.41;50.81;95397.00;5086843;28;20109;-78
2024/02/15 01:03:15;;;;;;;9.02;6.18;;;;;;;4.47;50.54;95387.31;5087091;28;20036;-78
2024/02/15 01:05:42;;;;;;;8.85;5.78;;;;;;;4.48;50.60;95397.03;5086849;28;20102;-78
2024/02/15 01:08:08;;;;;;;8.25;5.95;;;;;;;4.53;50.65;95398.59;5087414;28;20024;-78
2024/02/15 01:10:34;;;;;;;8.75;6.03;;;;;;;4.40;50.60;95384.56;5068771;28;20051;-77
2024/02/15 01:13:00;;;;;;;8.13;6.18;;;;;;;4.48;50.70;95396.25;5086874;28;20465;-77
2024/02/15 01:15:25;;;;;;;10.60;6.40;;;;;;;4.45;50.71;95389.63;5087209;28;20126;-78
2024/02/15 01:17:50;;;;;;;8.40;5.85;;;;;;;4.52;50.31;95386.91;5068354;28;20028;-77
2024/02/15 01:20:16;;;;;;;8.80;6.35;;;;;;;4.45;50.26;95376.00;5086868;28;20456;-77
2024/02/15 01:22:41;;;;;;;9.73;6.15;;;;;;;4.47;50.19;95383.78;5086623;28;20108;-78
2024/02/15 01:25:06;;;;;;;10.88;6.50;;;;;;;4.51;50.31;95392.75;5086602;28;20425;-77
2024/02/15 01:27:33;;;;;;;10.05;5.82;;;;;;;4.43;50.41;95385.72;5086439;28;20062;-77
2024/02/15 01:29:59;;;;;;;8.95;6.50;;;;;;;4.46;50.34;95391.16;5086463;28;20020;-77
2024/02/15 01:32:25;;;;;;;7.28;5.93;;;;;;;4.42;50.57;95390.41;5086530;28;20036;-77
2024/02/15 01:34:53;;;;;;;8.65;6.35;;;;;;;4.39;50.64;95388.44;5068063;28;20024;-76
2024/02/15 01:37:20;;;;;;;9.40;6.15;;;;;;;4.38;50.70;95386.09;5068169;28;20024;-78
2024/02/15 01:39:45;;;;;;;7.97;5.68;;;;;;;4.47;50.42;95383.78;5086144;28;20032;-78
2024/02/15 01:42:11;;;;;;;9.35;6.47;;;;;;;4.52;50.24;95386.13;5086275;28;20020;-78
2024/02/15 01:44:36;;;;;;;8.63;6.68;;;;;;;4.43;50.27;95381.06;5086025;28;20509;-78
2024/02/15 01:47:02;;;;;;;8.15;6.15;;;;;;;4.48;50.25;95388.09;5086273;28;20106;-78
2024/02/15 01:49:28;;;;;;;11.00;6.43;;;;;;;4.50;50.23;95394.69;5068308;28;20020;-79
2024/02/15 01:51:56;;;;;;;8.63;6.05;;;;;;;4.45;50.33;95391.56;5085780;28;20135;-78
2024/02/15 01:54:22;;;;;;;8.05;6.07;;;;;;;4.42;50.61;95397.78;5067873;28;20106;-78
2024/02/15 01:56:47;;;;;;;10.18;7.15;;;;;;;4.41;50.44;95399.72;5067724;28;20028;-77
2024/02/15 01:59:15;;;;;;;7.32;5.72;;;;;;;4.41;50.76;95404.38;5067814;28;20107;-77
2024/02/15 02:01:40;;;;;;;9.35;6.38;;;;;;;4.41;50.66;95397.00;5085657;28;20575;-79
2024/02/15 02:04:06;;;;;;;8.93;6.25;;;;;;;4.45;50.44;95399.72;5085984;28;20299;-78
2024/02/15 02:06:31;;;;;;;7.13;5.70;;;;;;;4.40;50.62;95397.38;5086020;28;20030;-77
2024/02/15 02:08:57;;;;;;;9.13;6.70;;;;;;;4.46;50.47;95396.63;5067393;28;20467;-78
2024/02/15 02:11:23;;;;;;;10.88;7.65;;;;;;;4.44;50.55;95390.78;5086123;28;20047;-77
2024/02/15 02:13:49;;;;;;;9.50;6.25;;;;;;;4.46;50.68;95393.88;5085590;28;20454;-77
2024/02/15 02:16:28;;;;;;;10.30;6.75;;;;;;;4.50;50.44;95394.69;5067811;28;20453;-77
2024/02/15 02:19:00;;;;;;;8.00;6.55;;;;;;;4.43;50.77;95397.41;5067438;28;20032;-77
2024/02/15 02:21:26;;;;;;;9.85;6.68;;;;;;;4.35;50.82;95395.03;5085780;28;20501;-77
2024/02/15 02:23:58;;;;;;;11.15;7.10;;;;;;;4.42;50.79;95408.69;5067414;28;20032;-78
2024/02/15 02:26:24;;;;;;;9.52;6.65;;;;;;;4.36;51.04;95404.75;5085654;28;20020;-77
2024/02/15 02:28:53;;;;;;;9.50;6.68;;;;;;;4.38;50.90;95405.16;5067644;28;20115;-79
2024/02/15 02:31:18;;;;;;;10.27;7.03;;;;;;;4.26;51.14;95403.56;5085556;28;20028;-77
2024/02/15 02:33:51;;;;;;;9.38;6.78;;;;;;;4.21;51.42;95409.38;5067471;28;20035;-77
2024/02/15 02:36:17;;;;;;;10.98;7.93;;;;;;;4.19;51.37;95409.00;5085472;28;20040;-77
2024/02/15 02:38:45;;;;;;;10.10;7.15;;;;;;;4.19;51.47;95409.78;5067840;28;20043;-77
2024/02/15 02:41:13;;;;;;;9.15;7.25;;;;;;;4.09;51.55;95410.53;5085421;28;20463;-77
2024/02/15 02:43:40;;;;;;;10.30;7.05;;;;;;;4.14;51.62;95420.25;5085455;28;20126;-77
2024/02/15 02:46:05;;;;;;;11.30;7.20;;;;;;;4.08;51.67;95406.25;5085524;28;20055;-77
2024/02/15 02:48:31;;;;;;;9.23;7.03;;;;;;;4.13;51.47;95410.50;5085465;28;20475;-79
2024/02/15 02:50:57;;;;;;;13.02;7.68;;;;;;;4.09;51.68;95415.19;5085263;28;20059;-78
2024/02/15 02:53:23;;;;;;;12.23;6.60;;;;;;;4.08;51.56;95413.63;5067700;28;20024;-79
2024/02/15 02:55:48;;;;;;;10.55;7.65;;;;;;;4.06;51.62;95408.56;5071000;28;20043;-79
2024/02/15 02:58:14;;;;;;;10.50;8.00;;;;;;;4.13;51.45;95415.97;5089340;28;20077;-79
2024/02/15 03:00:39;;;;;;;9.48;6.70;;;;;;;4.07;51.58;95412.84;5089417;28;20040;-79
2024/02/15 03:03:05;;;;;;;8.63;6.55;;;;;;;4.03;51.32;95409.34;5089330;28;20131;-77
2024/02/15 03:05:31;;;;;;;12.50;7.82;;;;;;;3.97;51.78;95417.09;5089377;28;20086;-78
2024/02/15 03:07:56;;;;;;;10.38;7.07;;;;;;;3.96;51.76;95412.03;5089167;28;20080;-77
2024/02/15 03:10:22;;;;;;;10.68;6.97;;;;;;;3.99;51.81;95413.97;5089346;28;20024;-77
2024/02/15 03:12:47;;;;;;;9.98;7.47;;;;;;;3.96;51.91;95426.41;5089118;28;20043;-78
2024/02/15 03:15:13;;;;;;;9.65;7.28;;;;;;;3.93;52.13;95418.22;5089183;28;20055;-77
2024/02/15 03:17:44;;;;;;;12.18;7.60;;;;;;;3.86;52.37;95413.53;5071306;28;20106;-77
2024/02/15 03:20:23;;;;;;;12.77;7.47;;;;;;;3.90;52.31;95417.06;5070622;28;20055;-77
2024/02/15 03:22:59;;;;;;;10.02;7.35;;;;;;;3.91;52.21;95418.63;5072447;28;20024;-79
2024/02/15 03:25:25;;;;;;;11.88;7.97;;;;;;;3.91;52.29;95424.06;5089130;28;20028;-77
2024/02/15 03:27:52;;;;;;;10.18;7.47;;;;;;;3.86;52.27;95424.41;5088596;28;20403;-78
2024/02/15 03:30:25;;;;;;;11.25;8.27;;;;;;;3.79;52.52;95440.72;5089424;28;20430;-79
2024/02/15 03:32:51;;;;;;;12.85;7.97;;;;;;;3.85;52.35;95436.47;5070212;28;20032;-79
2024/02/15 03:35:17;;;;;;;11.63;7.53;;;;;;;3.73;52.39;95423.19;5070821;28;20051;-80
2024/02/15 03:37:43;;;;;;;11.38;8.20;;;;;;;3.83;52.25;95433.31;5089615;28;20036;-80
2024/02/15 03:40:09;;;;;;;9.98;7.07;;;;;;;3.87;52.27;95436.06;5054180;28;20066;-78
2024/02/15 03:42:38;;;;;;;13.30;9.13;;;;;;;3.75;52.44;95439.91;5089155;28;20091;-79
2024/02/15 03:45:06;;;;;;;11.60;7.88;;;;;;;3.80;52.29;95442.25;5070648;28;20032;-79
2024/02/15 03:47:37;;;;;;;10.40;7.82;;;;;;;3.73;52.46;95423.97;5071069;28;20027;-79
2024/02/15 03:50:04;;;;;;;11.38;7.97;;;;;;;3.70;52.14;95438.31;5088304;28;20177;-77
2024/02/15 03:52:30;;;;;;;10.75;8.02;;;;;;;3.71;52.36;95436.38;5088522;28;20028;-78
2024/02/15 03:54:59;;;;;;;11.43;8.10;;;;;;;3.67;52.36;95441.00;5088307;28;20032;-77
2024/02/15 03:57:25;;;;;;;11.13;7.25;;;;;;;3.63;52.62;95440.22;5088332;28;20142;-77
2024/02/15 03:59:52;;;;;;;11.35;7.80;;;;;;;3.57;52.64;95441.75;5088078;28;20085;-78
2024/02/15 04:02:18;;;;;;;15.63;9.35;;;;;;;3.53;52.91;95441.72;5088052;28;20055;-79
2024/02/15 04:04:46;;;;;;;11.18;8.02;;;;;;;3.50;53.07;95430.81;5087420;28;20097;-77
2024/02/15 04:07:16;;;;;;;10.57;7.22;;;;;;;3.54;53.10;95434.31;5087348;28;20032;-78
2024/02/15 04:09:42;;;;;;;11.00;7.57;;;;;;;3.47;53.11;95435.84;5070206;28;20083;-77
2024/02/15 04:12:08;;;;;;;11.32;7.82;;;;;;;3.45;52.86;95437.41;5069773;28;20024;-79
2024/02/15 04:14:38;;;;;;;13.23;8.02;;;;;;;3.40;53.13;95435.81;5088103;28;20414;-77
2024/02/15 04:17:04;;;;;;;11.35;7.53;;;;;;;3.39;53.18;95444.34;5088303;28;20113;-79
2024/02/15 04:19:30;;;;;;;10.68;7.78;;;;;;;3.34;53.41;95442.75;5087901;28;20485;-79
2024/02/15 04:21:56;;;;;;;13.77;7.93;;;;;;;3.39;53.44;95438.91;5087674;28;20418;-79
2024/02/15 04:24:22;;;;;;;11.65;7.40;;;;;;;3.32;53.48;95428.75;5087693;28;20024;-79
2024/02/15 04:26:48;;;;;;;11.85;7.35;;;;;;;3.31;53.65;95435.34;5069890;28;20406;-77
2024/02/15 04:29:17;;;;;;;12.95;7.60;;;;;;;3.34;53.65;95439.25;5069551;28;20081;-77
2024/02/15 04:31:43;;;;;;;12.57;8.43;;;;;;;3.29;53.62;95437.66;5087741;28;20024;-78
2024/02/15 04:34:11;;;;;;;10.40;7.30;;;;;;;3.33;53.51;95441.19;5087709;28;20031;-79
2024/02/15 04:36:37;;;;;;;10.80;6.85;;;;;;;3.36;53.09;95445.88;5069886;28;20028;-77
2024/02/15 04:39:02;;;;;;;12.98;7.43;;;;;;;3.36;53.64;95447.81;5087391;28;20410;-79
2024/02/15 04:41:28;;;;;;;14.55;8.48;;;;;;;3.35;53.68;95449.75;5069179;28;20020;-79
2024/02/15 04:43:54;;;;;;;11.10;7.13;;;;;;;3.30;53.75;95452.81;5087580;28;20132;-79
2024/02/15 04:46:21;;;;;;;14.77;8.85;;;;;;;3.28;53.77;95455.13;5069295;28;20490;-79
2024/02/15 04:48:49;;;;;;;15.43;8.35;;;;;;;3.33;53.81;95464.88;5087460;28;20035;-78
2024/02/15 04:51:14;;;;;;;11.35;8.75;;;;;;;3.38;53.61;95462.59;5087198;28;20084;-79
2024/02/15 04:53:41;;;;;;;10.50;7.55;;;;;;;3.42;53.58;95465.31;5087076;28;20453;-78
2024/02/15 04:56:11;;;;;;;12.10;8.27;;;;;;;3.38;53.51;95456.34;5087000;28;20081;-78
2024/02/15 04:58:37;;;;;;;13.93;8.13;;;;;;;3.25;53.51;95455.09;5087099;28;20359;-79
2024/02/15 05:01:04;;;;;;;12.57;8.23;;;;;;;3.33;53.77;95475.75;5087069;28;20067;-79
2024/02/15 05:03:34;;;;;;;9.77;7.45;;;;;;;3.34;53.70;95477.31;5069029;28;20047;-79
2024/02/15 05:06:00;;;;;;;13.57;7.68;;;;;;;3.32;53.82;95474.94;5068854;28;20028;-79
2024/02/15 05:08:26;;;;;;;10.35;7.40;;;;;;;3.32;53.90;95480.38;5087114;28;20447;-79
2024/02/15 05:10:56;;;;;;;11.18;7.47;;;;;;;3.31;53.81;95484.25;5086860;28;20144;-79
2024/02/15 05:13:21;;;;;;;13.43;7.72;;;;;;;3.23;54.08;95479.16;5068749;28;20028;-79
2024/02/15 05:15:47;;;;;;;13.70;8.77;;;;;;;3.24;54.06;95483.44;5086745;28;20039;-79
2024/02/15 05:18:13;;;;;;;11.80;7.68;;;;;;;3.25;54.11;95474.91;5086651;28;20101;-79
2024/02/15 05:20:40;;;;;;;12.02;7.90;;;;;;;3.25;53.89;95488.47;5051616;28;20032;-79
2024/02/15 05:23:06;;;;;;;14.57;8.88;;;;;;;3.31;53.96;95489.69;5086491;28;20024;-79
2024/02/15 05:25:32;;;;;;;12.75;7.47;;;;;;;3.29;53.99;95486.59;5086908;28;20077;-79
2024/02/15 05:27:58;;;;;;;13.95;8.35;;;;;;;3.23;54.06;95488.09;5086471;28;20028;-79
2024/02/15 05:30:24;;;;;;;11.20;7.50;;;;;;;3.23;54.09;95490.81;5068260;28;20047;-79
2024/02/15 05:32:52;;;;;;;12.35;8.05;;;;;;;3.23;54.06;95490.81;5086759;28;20402;-80
2024/02/15 05:35:17;;;;;;;15.90;8.18;;;;;;;3.27;54.14;95496.25;5068622;28;20047;-80
2024/02/15 05:37:43;;;;;;;13.20;7.45;;;;;;;3.25;54.13;95495.84;5086361;28;20042;-78
2024/02/15 05:40:14;;;;;;;16.67;8.73;;;;;;;3.25;54.23;95502.06;5086386;28;20373;-79
2024/02/15 05:42:46;;;;;;;14.40;8.07;;;;;;;3.26;53.98;95505.56;5086803;28;20098;-79
2024/02/15 05:45:26;;;;;;;17.38;8.45;;;;;;;3.22;54.30;95516.41;5068287;28;20032;-77
2024/02/15 05:47:52;;;;;;;15.23;8.30;;;;;;;3.30;54.00;95509.09;5086517;28;20494;-79
2024/02/15 05:50:20;;;;;;;12.40;7.68;;;;;;;3.27;53.91;95505.22;5067869;28;20444;-78
2024/02/15 05:52:46;;;;;;;14.55;7.75;;;;;;;3.18;54.23;95504.72;5086511;28;20024;-79
2024/02/15 05:55:16;;;;;;;13.43;8.13;;;;;;;3.16;54.36;95510.56;5085736;28;20120;-79
2024/02/15 05:57:42;;;;;;;11.90;7.95;;;;;;;3.11;54.41;95513.59;5086146;28;20490;-77
2024/02/15 06:00:08;;;;;;;10.57;6.80;;;;;;;3.19;54.25;95514.44;5085824;28;20024;-76
2024/02/15 06:02:33;;;;;;;11.90;7.43;;;;;;;3.18;54.09;95516.38;5067846;28;20233;-77
2024/02/15 06:05:03;;;;;;;13.38;8.43;;;;;;;3.22;54.30;95529.22;5084587;28;20032;-77
2024/02/15 06:07:33;;;;;;;13.48;7.82;;;;;;;3.19;54.34;95525.31;5085737;28;20050;-79
2024/02/15 06:10:02;;;;;;;13.90;8.30;;;;;;;3.22;54.25;95516.41;5085764;28;20085;-77
2024/02/15 06:12:28;;;;;;;14.20;7.88;;;;;;;3.25;54.20;95518.38;5068611;28;20032;-78
2024/02/15 06:14:54;;;;;;;12.93;7.85;;;;;;;3.22;54.32;95529.22;5086086;28;20031;-78
2024/02/15 06:17:19;;;;;;;12.10;7.75;;;;;;;3.27;54.10;95526.94;5085757;28;20081;-79
2024/02/15 06:19:44;;;;;;;12.30;7.07;;;;;;;3.17;54.32;95528.41;5086138;28;20024;-79
2024/02/15 06:22:12;;;;;;;12.82;8.43;;;;;;;3.22;54.29;95530.00;5085579;28;20160;-78
2024/02/15 06:24:37;;;;;;;10.98;8.00;;;;;;;3.28;54.34;95533.94;5085858;28;20032;-80
2024/02/15 06:27:03;;;;;;;13.05;7.53;;;;;;;3.33;54.15;95532.81;5067750;28;20031;-78
2024/02/15 06:40:24;;;;;;;13.23;7.35;;;;;;;3.24;54.32;95548.66;5085952;28;19919;-78
2024/02/15 06:42:50;;;;;;;14.32;7.20;;;;;;;3.31;54.17;95543.28;5067804;28;20032;-77
2024/02/15 06:45:16;;;;;;;10.05;6.90;;;;;;;3.28;54.46;95544.81;5085754;28;20039;-78
2024/02/15 06:47:45;;;;;;;15.15;7.30;;;;;;;3.36;54.50;95543.72;5086910;28;20024;-78
2024/02/15 06:50:11;;;;;;;12.73;7.38;;;;;;;3.36;54.34;95543.72;5086681;28;20031;-78
2024/02/15 06:52:38;;;;;;;11.80;7.03;;;;;;;3.49;53.87;95565.16;5067941;28;20032;-79
2024/02/15 06:55:05;;;;;;;12.45;8.07;;;;;;;3.50;53.81;95561.28;5086372;28;20027;-77
2024/02/15 06:57:30;;;;;;;13.43;7.50;;;;;;;3.48;53.70;95556.22;5086362;28;20030;-76
2024/02/15 06:59:56;;;;;;;12.18;7.88;;;;;;;3.51;53.67;95563.66;5085390;28;20120;-77
2024/02/15 07:02:23;;;;;;;10.90;7.82;;;;;;;3.57;53.67;95564.09;5085236;28;20036;-76
2024/02/15 07:04:49;;;;;;;14.10;8.23;;;;;;;3.59;53.32;95567.19;5085512;28;20036;-76
2024/02/15 07:07:14;;;;;;;11.63;7.30;;;;;;;3.66;53.28;95567.25;5084929;28;20032;-78
2024/02/15 07:09:40;;;;;;;13.07;7.75;;;;;;;3.71;53.16;95554.09;5067513;28;20095;-77
2024/02/15 07:12:05;;;;;;;14.20;8.00;;;;;;;3.62;52.81;95559.06;5085289;28;20028;-77
2024/02/15 07:14:31;;;;;;;11.32;7.50;;;;;;;3.68;53.20;95556.78;5085937;28;20089;-77
2024/02/15 07:16:59;;;;;;;13.38;8.05;;;;;;;3.72;53.40;95546.69;5085341;28;20031;-76
2024/02/15 07:19:25;;;;;;;12.00;7.55;;;;;;;3.76;53.05;95550.22;5085045;28;20028;-77
2024/02/15 07:21:51;;;;;;;14.07;7.70;;;;;;;3.81;52.86;95546.38;5065503;28;20020;-76
2024/02/15 07:24:16;;;;;;;15.63;8.15;;;;;;;3.89;52.72;95550.69;5065895;28;20505;-76
2024/02/15 07:26:42;;;;;;;16.55;8.20;;;;;;;3.92;52.80;95547.25;5067413;28;20445;-77
2024/02/15 07:29:07;;;;;;;12.32;7.55;;;;;;;3.98;52.61;95548.44;5085408;28;20020;-77
2024/02/15 07:31:34;;;;;;;13.95;8.70;;;;;;;4.06;52.42;95547.31;5085639;28;20115;-76
2024/02/15 07:33:59;;;;;;;16.85;8.25;;;;;;;4.13;52.40;95539.22;5085160;28;20028;-75
2024/02/15 07:36:25;;;;;;;12.30;7.85;;;;;;;4.20;52.06;95539.25;5067435;28;20016;-77
2024/02/15 07:38:52;;;;;;;14.13;7.95;;;;;;;4.35;51.96;95539.31;5085267;28;20371;-77
2024/02/15 07:41:20;;;;;;;13.88;7.88;;;;;;;4.40;51.77;95541.66;5088242;28;20114;-77
2024/02/15 07:43:47;;;;;;;11.20;6.65;;;;;;;4.41;51.38;95535.06;5071043;28;20570;-77
2024/02/15 07:46:16;;;;;;;12.77;8.32;;;;;;;4.55;51.62;95534.34;5088219;28;20032;-76
2024/02/15 07:48:46;;;;;;;12.50;7.25;;;;;;;4.65;51.13;95536.34;5088685;28;20028;-76
2024/02/15 07:51:15;;;;;;;13.98;7.85;;;;;;;4.73;51.14;95529.75;5070508;28;20129;-77
2024/02/15 07:53:42;;;;;;;14.57;8.63;;;;;;;4.86;50.89;95535.59;5070098;28;20074;-75
2024/02/15 07:56:09;;;;;;;11.90;8.13;;;;;;;5.00;50.59;95522.03;5088220;28;20112;-76
2024/02/15 07:58:39;;;;;;;12.80;7.60;;;;;;;5.18;50.06;95531.00;5070541;28;20036;-76
2024/02/15 08:01:05;;;;;;;10.55;7.55;;;;;;;5.41;49.62;95533.38;5087998;28;20048;-76
2024/02/15 08:03:30;;;;;;;13.75;8.15;;;;;;;5.62;49.47;95540.00;5070030;28;20044;-76
2024/02/15 08:05:56;;;;;;;10.05;7.55;;;;;;;5.82;48.64;95541.94;5088461;28;20112;-76
2024/02/15 08:08:21;;;;;;;10.57;6.85;;;;;;;6.15;47.32;95539.19;5087898;28;20096;-76
2024/02/15 08:10:48;;;;;;;13.10;8.27;;;;;;;6.42;46.20;95534.03;5088397;28;20103;-77
2024/02/15 08:13:15;;;;;;;11.77;8.43;;;;;;;6.74;45.57;95533.94;5087903;28;20024;-76
2024/02/15 08:15:40;;;;;;;13.30;7.70;;;;;;;7.07;45.19;95521.66;5088255;28;20024;-76
2024/02/15 08:18:09;;;;;;;11.63;7.38;;;;;;;7.40;44.61;95512.84;5088030;28;20077;-76
2024/02/15 08:20:34;;;;;;;11.40;7.53;;;;;;;7.79;43.19;95524.63;5087875;28;20455;-76
2024/02/15 08:22:59;;;;;;;9.73;7.30;;;;;;;8.14;42.59;95520.78;5088025;28;20162;-76
2024/02/15 08:25:25;;;;;;;12.48;8.25;;;;;;;8.57;42.01;95528.59;5087530;28;20032;-76
2024/02/15 08:27:50;;;;;;;10.32;6.80;;;;;;;8.96;40.76;95517.91;5069800;28;20020;-76
2024/02/15 08:30:16;;;;;;;13.02;7.90;;;;;;;9.40;39.66;95527.06;5087651;28;20092;-77
2024/02/15 08:32:43;;;;;;;8.90;6.70;;;;;;;9.79;38.77;95525.69;5069670;28;20024;-76
2024/02/15 08:35:09;;;;;;;12.27;7.80;;;;;;;10.45;38.46;95513.97;5069180;28;20055;-77
2024/02/15 08:37:35;;;;;;;11.90;8.30;;;;;;;11.25;36.25;95524.94;5087416;28;20555;-77
2024/02/15 08:40:03;;;;;;;10.45;7.15;;;;;;;12.12;35.14;95520.50;5088156;28;20074;-77
2024/02/15 08:42:29;;;;;;;12.70;7.70;;;;;;;12.91;33.22;95518.41;5069515;28;20036;-77
2024/02/15 08:44:55;;;;;;;11.13;7.10;;;;;;;13.90;31.41;95528.44;5087541;28;20039;-76
2024/02/15 08:47:21;;;;;;;8.85;6.55;;;;;;;14.95;29.87;95502.31;5087118;28;20023;-76
2024/02/15 08:49:46;;;;;;;8.85;6.43;;;;;;;16.10;28.09;95516.06;5087562;28;20491;-76
2024/02/15 08:52:11;;;;;;;8.85;6.43;;;;;;;16.84;27.24;95516.16;5085752;28;20023;-76
2024/02/15 08:54:39;;;;;;;8.93;6.15;;;;;;;17.39;25.78;95525.16;5087301;28;20111;-76
2024/02/15 08:57:06;;;;;;;10.57;7.35;;;;;;;18.06;25.24;95517.63;5087115;28;20089;-76
2024/02/15 08:59:31;;;;;;;11.15;6.80;;;;;;;18.89;24.45;95508.75;5087319;28;20035;-76
2024/02/15 09:01:57;;;;;;;10.15;7.97;;;;;;;19.60;23.34;95507.72;5086881;28;20080;-76
2024/02/15 09:04:24;;;;;;;9.15;7.07;;;;;;;19.87;22.62;95512.97;5068506;28;20027;-76
2024/02/15 09:06:50;;;;;;;8.15;6.22;;;;;;;20.21;22.21;95510.69;5087183;28;20051;-76
2024/02/15 09:09:16;;;;;;;7.03;5.50;;;;;;;20.80;21.44;95513.22;5086550;28;20051;-75
2024/02/15 09:11:41;;;;;;;8.60;5.80;;;;;;;20.84;20.99;95505.41;5087267;28;20097;-76
2024/02/15 09:14:09;;;;;;;9.25;5.88;;;;;;;21.17;20.63;95507.78;5086665;28;20054;-76
2024/02/15 09:16:36;;;;;;;8.75;6.15;;;;;;;21.66;19.99;95503.16;5086812;28;20020;-78
2024/02/15 09:19:01;;;;;;;8.23;5.28;;;;;;;22.03;19.91;95510.81;5087154;28;20032;-74
2024/02/15 09:21:28;;;;;;;9.90;5.88;;;;;;;22.67;19.73;95509.41;5068307;28;20035;-77
2024/02/15 09:23:54;;;;;;;7.05;6.35;;;;;;;23.39;18.32;95510.91;5086872;28;20066;-77
2024/02/15 09:26:20;;;;;;;5.85;5.25;;;;;;;23.61;18.07;95489.75;5068299;28;20020;-76
2024/02/15 09:28:45;;;;;;;6.75;5.72;;;;;;;24.22;17.67;95500.19;5086998;28;20032;-77
2024/02/15 09:31:14;;;;;;;9.27;5.65;;;;;;;24.69;17.26;95509.53;5086136;28;20028;-76
2024/02/15 09:33:39;;;;;;;7.38;5.53;;;;;;;24.90;17.16;95502.28;5086481;28;20032;-77
2024/02/15 09:36:05;;;;;;;7.95;6.32;;;;;;;24.95;16.72;95494.34;5086569;28;20549;-76
2024/02/15 09:38:30;;;;;;;8.60;6.75;;;;;;;25.14;16.43;95501.69;5068126;28;20027;-76
2024/02/15 09:40:56;;;;;;;10.00;6.43;;;;;;;25.40;15.94;95492.03;5086583;28;20099;-76
2024/02/15 09:43:26;;;;;;;7.93;5.90;;;;;;;25.68;16.10;95501.03;5086133;28;20028;-77
2024/02/15 09:45:54;;;;;;;10.93;6.80;;;;;;;26.05;15.79;95487.72;5086850;28;20166;-76
2024/02/15 09:48:23;;;;;;;9.90;6.00;;;;;;;26.35;15.24;95488.44;5086060;28;20032;-76
2024/02/15 09:50:52;;;;;;;7.57;6.35;;;;;;;26.14;15.73;95485.31;5068259;28;20017;-77
2024/02/15 09:53:21;;;;;;;6.72;5.57;;;;;;;26.17;15.64;95478.63;5085874;28;20043;-77
2024/02/15 09:55:46;;;;;;;7.47;5.10;;;;;;;26.68;15.21;95478.88;5086054;28;20031;-78
2024/02/15 09:58:12;;;;;;;7.15;5.55;;;;;;;27.06;15.24;95481.72;5067439;28;20017;-77
2024/02/15 10:00:38;;;;;;;6.63;5.20;;;;;;;27.56;14.33;95485.13;5067419;28;20539;-79
2024/02/15 10:03:06;;;;;;;7.10;5.45;;;;;;;27.91;14.05;95473.53;5086463;28;20111;-78
2024/02/15 10:05:32;;;;;;;5.95;5.32;;;;;;;28.24;13.93;95471.41;5085875;28;20119;-78
2024/02/15 10:08:00;;;;;;;9.75;6.18;;;;;;;28.12;13.88;95470.88;5085868;28;20031;-75
2024/02/15 10:10:26;;;;;;;6.97;5.20;;;;;;;28.52;13.43;95465.25;5085834;28;20576;-78
2024/02/15 10:12:56;;;;;;;7.45;5.15;;;;;;;28.90;13.28;95467.81;5067764;28;20622;-77
2024/02/15 10:15:32;;;;;;;5.95;4.65;;;;;;;29.32;12.86;95460.25;5086095;28;20107;-77
2024/02/15 10:18:01;;;;;;;6.95;4.32;;;;;;;29.38;12.58;95460.13;5086240;28;20146;-77
2024/02/15 10:20:26;;;;;;;6.82;5.18;;;;;;;29.73;12.79;95456.72;5085526;28;20088;-77
2024/02/15 10:23:08;;;;;;;6.07;4.90;;;;;;;29.42;12.87;95452.81;5085639;28;20103;-77
2024/02/15 10:25:34;;;;;;;7.07;5.40;;;;;;;29.53;12.53;95448.97;5085710;28;20032;-76
2024/02/15 10:28:20;;;;;;;6.22;4.25;;;;;;;30.13;12.28;95434.59;5067797;28;20278;-77
2024/02/15 10:30:48;;;;;;;5.95;4.20;;;;;;;30.61;11.76;95442.84;5086250;28;20020;-76
2024/02/15 10:33:26;;;;;;;6.80;4.72;;;;;;;30.67;11.71;95426.41;5067117;28;20070;-80
2024/02/15 10:36:08;;;;;;;6.30;4.47;;;;;;;30.96;11.93;95432.81;5067089;28;20035;-81
2024/02/15 10:38:35;;;;;;;7.60;5.22;;;;;;;31.43;11.42;95432.44;5050798;28;20405;-80
2024/02/15 10:41:08;;;;;;;7.13;4.82;;;;;;;31.81;11.14;95431.72;5051018;28;20588;-80
2024/02/15 10:43:33;;;;;;;6.82;5.15;;;;;;;31.61;11.66;95430.56;5050928;28;20521;-81
2024/02/15 10:46:00;;;;;;;5.82;5.18;;;;;;;31.39;11.34;95425.59;5051067;28;20028;-81
2024/02/15 10:48:28;;;;;;;7.38;5.03;;;;;;;31.01;11.49;95422.63;5085282;28;20430;-78
2024/02/15 10:50:56;;;;;;;8.13;5.20;;;;;;;31.18;11.33;95423.63;5085636;28;20039;-77
2024/02/15 10:53:26;;;;;;;5.70;4.63;;;;;;;31.26;11.01;95414.41;5084778;28;20045;-79
2024/02/15 10:56:10;;;;;;;7.35;4.55;;;;;;;31.64;11.04;95411.63;5085634;28;20059;-76
2024/02/15 10:58:46;;;;;;;6.75;4.68;;;;;;;32.37;11.27;95417.72;5085926;28;20497;-77
2024/02/15 11:01:17;;;;;;;6.10;4.57;;;;;;;32.80;10.35;95410.19;5084712;28;20127;-78
2024/02/15 11:03:58;;;;;;;6.45;4.43;;;;;;;32.83;10.24;95409.03;5085855;28;20039;-78
2024/02/15 11:06:29;;;;;;;7.03;5.75;;;;;;;33.23;10.15;95406.22;5085289;28;20016;-78
2024/02/15 11:08:55;;;;;;;5.43;4.73;;;;;;;33.66;10.29;95407.09;5085404;28;20087;-78
2024/02/15 11:11:21;;;;;;;4.88;4.35;;;;;;;33.75;9.93;95410.09;5085311;28;20108;-78
2024/02/15 11:13:48;;;;;;;8.85;5.22;;;;;;;33.94;9.62;95403.88;5085368;28;20028;-78
2024/02/15 11:16:42;;;;;;;8.48;4.60;;;;;;;33.85;9.90;95395.19;5088912;28;20077;-79
2024/02/15 11:19:10;;;;;;;6.47;4.18;;;;;;;34.21;10.04;95394.72;5089086;28;20393;-78
2024/02/15 11:21:58;;;;;;;5.22;4.07;;;;;;;34.43;9.98;95398.69;5071112;28;20028;-79
2024/02/15 11:24:36;;;;;;;4.35;3.95;;;;;;;34.48;9.42;95389.91;5089005;28;20085;-77
2024/02/15 11:27:06;;;;;;;5.07;4.43;;;;;;;34.83;9.44;95387.03;5070470;28;20036;-77
2024/02/15 11:29:55;;;;;;;5.18;4.22;;;;;;;34.83;9.53;95384.19;5089063;28;20020;-77
2024/02/15 11:32:39;;;;;;;5.22;4.07;;;;;;;34.97;9.18;95388.19;5088645;28;20511;-77
2024/02/15 11:35:13;;;;;;;6.78;5.13;;;;;;;35.37;9.33;95395.66;5088867;28;20104;-79
2024/02/15 11:37:47;;;;;;;5.97;4.40;;;;;;;35.41;8.79;95392.38;5089143;28;20032;-78
2024/02/15 11:40:16;;;;;;;7.25;4.15;;;;;;;35.32;8.96;95388.88;5088277;28;20027;-79
2024/02/15 11:42:42;;;;;;;6.55;4.85;;;;;;;35.58;8.77;95387.38;5089003;28;20035;-78
2024/02/15 11:45:08;;;;;;;6.13;4.55;;;;;;;35.58;8.79;95380.91;5088917;28;20494;-77